Time;durP1;ratioP1;P1;durP2;ratioP2;P2;SDS_P1;SDS_P2;PMS_P1;PMS_P2;Temp;Humidity;BMP_temperature;BMP_pressure;BME280_temperature;BME280_humidity;BME280_pressure;Samples;Min_cycle;Max_cycle;Signal;HPM_P1;HPM_P2
2021/11/20 00:00:21;;;;;;;33.70;21.17;;;;;;;8.47;100.00;102159.97;680100;28;4892;-51
2021/11/20 00:00:42;;;;;;;32.55;20.75;;;;;;;8.48;100.00;102151.28;681197;28;1251;-52
2021/11/20 00:01:09;;;;;;;31.50;20.85;;;;;;;8.47;100.00;102149.53;680799;28;1449;-53
2021/11/20 00:01:32;;;;;;;30.95;20.02;;;;;;;8.46;100.00;102150.38;680283;29;1511;-51
2021/11/20 00:01:54;;;;;;;32.63;20.40;;;;;;;8.46;100.00;102152.97;680676;29;1079;-54
2021/11/20 00:02:23;;;;;;;34.00;20.92;;;;;;;8.46;100.00;102147.78;681141;29;1375;-51
2021/11/20 00:02:44;;;;;;;35.08;21.95;;;;;;;8.47;100.00;102143.44;680963;29;1648;-54
2021/11/20 00:03:04;;;;;;;35.38;20.65;;;;;;;8.46;100.00;102147.78;680476;28;4446;-53
2021/11/20 00:03:25;;;;;;;34.57;21.03;;;;;;;8.47;100.00;102144.34;679314;28;2134;-54
2021/11/20 00:03:46;;;;;;;30.38;21.35;;;;;;;8.46;100.00;102147.78;678537;28;2128;-53
2021/11/20 00:04:07;;;;;;;33.10;21.02;;;;;;;8.47;100.00;102149.53;679641;28;1362;-52
2021/11/20 00:04:27;;;;;;;31.92;20.25;;;;;;;8.47;100.00;102149.53;681909;28;1161;-55
2021/11/20 00:04:48;;;;;;;30.53;19.67;;;;;;;8.47;100.00;102146.94;680842;28;1254;-54
2021/11/20 00:05:10;;;;;;;32.88;21.10;;;;;;;8.46;100.00;102145.16;679644;29;1307;-53
2021/11/20 00:05:35;;;;;;;35.38;20.92;;;;;;;8.45;100.00;102146.00;680694;29;1054;-52
2021/11/20 00:05:57;;;;;;;34.70;21.17;;;;;;;8.45;100.00;102150.34;680888;28;3295;-55
2021/11/20 00:06:22;;;;;;;35.60;21.83;;;;;;;8.44;100.00;102149.41;680003;28;4378;-54
2021/11/20 00:06:45;;;;;;;33.72;21.20;;;;;;;8.45;100.00;102145.13;680356;29;1288;-55
2021/11/20 00:07:06;;;;;;;31.23;20.55;;;;;;;8.44;100.00;102146.78;680726;29;1110;-55
2021/11/20 00:07:26;;;;;;;33.10;20.87;;;;;;;8.43;100.00;102147.66;680868;28;1247;-56
2021/11/20 00:07:47;;;;;;;35.00;20.73;;;;;;;8.42;100.00;102143.28;680030;29;1079;-55
2021/11/20 00:08:09;;;;;;;31.87;20.10;;;;;;;8.43;100.00;102146.75;680108;29;1113;-54
2021/11/20 00:08:29;;;;;;;35.08;22.10;;;;;;;8.42;100.00;102151.09;679905;29;1043;-52
2021/11/20 00:08:50;;;;;;;33.67;21.95;;;;;;;8.41;100.00;102144.09;680637;28;3147;-51
2021/11/20 00:09:14;;;;;;;33.30;22.33;;;;;;;8.41;100.00;102141.50;679992;28;4371;-53
2021/11/20 00:09:34;;;;;;;35.13;21.85;;;;;;;8.41;100.00;102138.91;680928;29;1914;-52
2021/11/20 00:09:55;;;;;;;37.87;22.37;;;;;;;8.42;100.00;102148.50;680356;28;1160;-54
2021/11/20 00:10:19;;;;;;;35.80;21.97;;;;;;;8.41;100.00;102138.91;680682;29;1090;-52
2021/11/20 00:10:43;;;;;;;35.05;22.58;;;;;;;8.41;100.00;102143.25;681124;28;1267;-52
2021/11/20 00:11:07;;;;;;;35.60;22.88;;;;;;;8.39;100.00;102143.19;679142;29;1208;-53
2021/11/20 00:11:30;;;;;;;34.00;21.90;;;;;;;8.40;100.00;102150.16;681135;28;1042;-52
2021/11/20 00:11:53;;;;;;;31.92;21.10;;;;;;;8.42;100.00;102148.50;680550;28;3042;-54
2021/11/20 00:12:27;;;;;;;31.08;20.98;;;;;;;8.43;100.00;102146.75;679926;28;4486;-53
2021/11/20 00:12:49;;;;;;;33.13;20.95;;;;;;;8.44;100.00;102148.53;681406;28;1573;-54
2021/11/20 00:13:11;;;;;;;30.67;20.58;;;;;;;8.44;100.00;102144.19;680687;29;1089;-53
2021/11/20 00:13:32;;;;;;;31.83;20.75;;;;;;;8.43;100.00;102146.75;683252;28;1185;-53
2021/11/20 00:13:53;;;;;;;34.83;21.33;;;;;;;8.40;100.00;102142.34;682926;28;1052;-52
2021/11/20 00:14:15;;;;;;;35.75;22.10;;;;;;;8.40;100.00;102142.34;683499;28;1121;-53
2021/11/20 00:14:35;;;;;;;34.50;22.38;;;;;;;8.39;100.00;102145.81;682886;28;1058;-52
2021/11/20 00:14:56;;;;;;;33.92;22.10;;;;;;;8.40;100.00;102142.34;682929;28;3935;-55
2021/11/20 00:15:23;;;;;;;35.28;21.77;;;;;;;8.40;100.00;102141.47;679640;28;4622;-52
2021/11/20 00:15:47;;;;;;;34.40;22.58;;;;;;;8.40;100.00;102142.34;682700;28;1199;-51
2021/11/20 00:16:11;;;;;;;31.38;21.17;;;;;;;8.40;100.00;102139.72;682834;28;1624;-51
2021/11/20 00:16:31;;;;;;;31.23;21.40;;;;;;;8.43;100.00;102142.44;682425;28;1057;-52
2021/11/20 00:16:55;;;;;;;31.93;20.60;;;;;;;8.44;100.00;102143.31;681509;29;1101;-55
2021/11/20 00:17:15;;;;;;;30.80;20.27;;;;;;;8.44;100.00;102144.19;682623;28;1157;-54
2021/11/20 00:17:36;;;;;;;31.02;20.88;;;;;;;8.45;100.00;102143.38;682474;28;1148;-53
2021/11/20 00:17:57;;;;;;;31.85;20.83;;;;;;;8.46;100.00;102142.56;680480;29;3014;-53
2021/11/20 00:18:19;;;;;;;30.20;21.13;;;;;;;8.46;100.00;102144.25;679893;28;4445;-51
2021/11/20 00:18:40;;;;;;;30.05;20.73;;;;;;;8.46;100.00;102139.94;681243;29;1090;-55
2021/11/20 00:19:00;;;;;;;31.17;20.17;;;;;;;8.45;100.00;102143.38;680194;29;1177;-53
2021/11/20 00:19:23;;;;;;;31.77;20.17;;;;;;;8.45;100.00;102146.00;680598;29;1208;-55
2021/11/20 00:19:43;;;;;;;29.30;19.85;;;;;;;8.45;100.00;102143.38;680602;29;1047;-52
2021/11/20 00:20:07;;;;;;;31.70;20.25;;;;;;;8.45;100.00;102143.38;680313;28;1035;-52
2021/11/20 00:20:31;;;;;;;32.00;21.10;;;;;;;8.44;100.00;102144.19;680598;28;1098;-52
2021/11/20 00:20:55;;;;;;;31.58;21.73;;;;;;;8.43;100.00;102142.44;680916;28;3373;-52
2021/11/20 00:21:38;;;;;;;31.25;22.00;;;;;;;8.43;100.00;102146.75;680257;28;4348;-52
2021/11/20 00:22:07;;;;;;;35.65;21.50;;;;;;;8.42;100.00;102143.28;680567;29;1026;-56
2021/11/20 00:22:32;;;;;;;33.55;21.58;;;;;;;8.42;100.00;102140.69;680159;28;980;-52
2021/11/20 00:22:54;;;;;;;34.50;21.85;;;;;;;8.41;100.00;102133.69;680559;29;1062;-52
2021/11/20 00:23:17;;;;;;;32.63;21.70;;;;;;;8.42;100.00;102140.69;680080;29;1197;-54
2021/11/20 00:23:45;;;;;;;32.85;21.98;;;;;;;8.42;100.00;102137.16;680471;29;1223;-54
2021/11/20 00:24:18;;;;;;;37.15;21.20;;;;;;;8.41;100.00;102145.84;680141;28;4556;-51
2021/11/20 00:24:49;;;;;;;32.78;21.25;;;;;;;8.39;100.00;102135.38;680525;29;1436;-54
2021/11/20 00:25:21;;;;;;;33.72;21.77;;;;;;;8.39;100.00;102139.69;681061;29;1026;-52
2021/11/20 00:25:48;;;;;;;33.20;22.00;;;;;;;8.37;100.00;102137.03;679491;29;1136;-51
2021/11/20 00:26:13;;;;;;;31.67;21.10;;;;;;;8.38;100.00;102143.13;679715;29;4001;-51
2021/11/20 00:26:35;;;;;;;34.50;21.92;;;;;;;8.38;100.00;102140.53;682321;28;1112;-54
2021/11/20 00:26:58;;;;;;;32.00;20.60;;;;;;;8.38;100.00;102144.03;683064;28;2100;-53
2021/11/20 00:27:22;;;;;;;29.80;19.40;;;;;;;8.38;100.00;102141.44;679077;28;4345;-52
2021/11/20 00:27:44;;;;;;;33.22;20.83;;;;;;;8.37;100.00;102138.78;679349;29;1116;-53
2021/11/20 00:28:05;;;;;;;35.03;21.27;;;;;;;8.36;100.00;102137.88;682070;28;1371;-55
2021/11/20 00:28:53;;;;;;;39.33;22.23;;;;;;;8.38;100.00;102148.34;679516;29;1466;-55
2021/11/20 00:30:22;;;;;;;31.55;21.35;;;;;;;8.35;100.00;102143.97;677565;28;4376;-51
2021/11/20 00:30:57;;;;;;;34.47;21.08;;;;;;;8.33;100.00;102137.81;677476;29;1126;-53
2021/11/20 00:31:21;;;;;;;29.90;19.95;;;;;;;8.35;100.00;102138.75;678480;29;1326;-53
2021/11/20 00:31:54;;;;;;;33.28;20.92;;;;;;;8.33;100.00;102140.41;683854;28;1339;-52
2021/11/20 00:32:18;;;;;;;35.42;22.20;;;;;;;8.33;100.00;102135.19;687518;28;2287;-54
2021/11/20 00:32:45;;;;;;;34.90;22.75;;;;;;;8.32;100.00;102138.63;683706;28;2224;-52
2021/11/20 00:33:09;;;;;;;37.17;22.45;;;;;;;8.32;100.00;102136.94;679430;29;4780;-54
2021/11/20 00:33:34;;;;;;;34.38;22.48;;;;;;;8.33;100.00;102138.69;679936;29;1367;-51
2021/11/20 00:33:55;;;;;;;32.47;21.08;;;;;;;8.35;100.00;102138.75;678580;29;1330;-52
2021/11/20 00:34:20;;;;;;;32.08;20.90;;;;;;;8.35;100.00;102134.41;673091;29;1524;-53
2021/11/20 00:34:43;;;;;;;33.47;21.30;;;;;;;8.37;100.00;102136.19;677421;29;1392;-55
2021/11/20 00:35:08;;;;;;;32.00;20.75;;;;;;;8.37;100.00;102137.03;678414;29;2274;-51
2021/11/20 00:35:34;;;;;;;30.50;20.88;;;;;;;8.37;100.00;102147.47;678807;29;2473;-52
2021/11/20 00:35:58;;;;;;;29.80;20.65;;;;;;;8.34;100.00;102137.84;681022;29;3962;-55
2021/11/20 00:36:21;;;;;;;31.60;21.08;;;;;;;8.35;100.00;102134.41;681684;28;6546;-53
2021/11/20 00:36:42;;;;;;;34.67;22.00;;;;;;;8.34;100.00;102140.44;681147;29;1430;-52
2021/11/20 00:37:02;;;;;;;32.72;21.08;;;;;;;8.35;100.00;102136.13;681685;28;1081;-51
2021/11/20 00:37:24;;;;;;;32.72;20.83;;;;;;;8.35;100.00;102133.53;678126;29;1370;-52
2021/11/20 00:37:45;;;;;;;32.92;20.88;;;;;;;8.34;100.00;102137.84;676419;29;1064;-52
2021/11/20 00:38:09;;;;;;;32.60;21.33;;;;;;;8.35;100.00;102128.31;676777;29;1072;-54
2021/11/20 00:38:31;;;;;;;33.60;20.30;;;;;;;8.36;100.00;102135.28;680841;28;3329;-52
2021/11/20 00:38:52;;;;;;;31.52;20.20;;;;;;;8.37;100.00;102137.03;682084;28;3554;-52
2021/11/20 00:39:14;;;;;;;31.08;20.73;;;;;;;8.38;100.00;102138.81;681270;28;4618;-51
2021/11/20 00:39:38;;;;;;;30.42;20.65;;;;;;;8.39;100.00;102135.38;681116;29;1354;-54
2021/11/20 00:39:58;;;;;;;31.13;20.65;;;;;;;8.39;100.00;102142.28;681602;29;1268;-54
2021/11/20 00:40:44;;;;;;;31.80;21.03;;;;;;;8.38;100.00;102132.72;678712;29;1265;-53
2021/11/20 00:41:17;;;;;;;32.85;21.60;;;;;;;8.38;100.00;102138.81;676934;29;1214;-55
2021/11/20 00:41:38;;;;;;;34.97;22.17;;;;;;;8.37;100.00;102130.97;680706;28;3980;-54
2021/11/20 00:42:00;;;;;;;33.47;22.20;;;;;;;8.37;100.00;102139.66;681139;28;4932;-52
2021/11/20 00:42:22;;;;;;;36.28;22.17;;;;;;;8.37;100.00;102130.97;679718;29;1190;-54
2021/11/20 00:42:42;;;;;;;35.22;21.92;;;;;;;8.37;100.00;102136.19;680597;29;1085;-52
2021/11/20 00:43:03;;;;;;;33.67;21.20;;;;;;;8.37;100.00;102130.97;680012;29;1166;-54
2021/11/20 00:43:25;;;;;;;35.97;21.37;;;;;;;8.37;100.00;102137.03;680509;29;1236;-56
2021/11/20 00:43:47;;;;;;;35.63;21.45;;;;;;;8.38;100.00;102135.31;678384;29;1312;-53
2021/11/20 00:44:07;;;;;;;34.35;20.98;;;;;;;8.37;100.00;102137.03;677584;29;1070;-53
2021/11/20 00:44:28;;;;;;;31.38;21.02;;;;;;;8.36;100.00;102132.66;680028;29;3128;-52
2021/11/20 00:44:49;;;;;;;33.97;21.48;;;;;;;8.37;100.00;102133.56;677747;29;3302;-52
2021/11/20 00:45:10;;;;;;;34.17;21.20;;;;;;;8.36;100.00;102135.28;678693;28;4409;-56
2021/11/20 00:45:31;;;;;;;34.28;20.67;;;;;;;8.36;100.00;102137.88;678758;29;1461;-51
2021/11/20 00:45:52;;;;;;;30.35;19.52;;;;;;;8.37;100.00;102134.44;681229;29;1169;-56
2021/11/20 00:46:15;;;;;;;31.10;19.45;;;;;;;8.37;100.00;102138.78;682710;28;1394;-52
2021/11/20 00:46:35;;;;;;;29.92;19.95;;;;;;;8.37;100.00;102134.44;682685;28;1366;-54
2021/11/20 00:46:56;;;;;;;29.97;19.70;;;;;;;8.37;100.00;102138.78;683319;28;1185;-51
2021/11/20 00:47:17;;;;;;;28.70;19.70;;;;;;;8.37;100.00;102136.19;681925;28;1212;-52
2021/11/20 00:47:38;;;;;;;29.85;20.00;;;;;;;8.37;100.00;102137.03;681431;28;3156;-55
2021/11/20 00:47:59;;;;;;;30.73;20.37;;;;;;;8.37;100.00;102137.03;676943;29;4486;-53
2021/11/20 00:48:22;;;;;;;29.83;20.05;;;;;;;8.38;100.00;102131.00;675863;29;1169;-53
2021/11/20 00:48:46;;;;;;;31.27;21.30;;;;;;;8.40;100.00;102138.88;674088;29;1364;-51
2021/11/20 00:49:07;;;;;;;29.95;20.45;;;;;;;8.40;100.00;102136.25;671612;29;1180;-53
2021/11/20 00:49:29;;;;;;;31.45;20.58;;;;;;;8.40;100.00;102131.91;677824;29;1919;-54
2021/11/20 00:49:50;;;;;;;31.92;20.67;;;;;;;8.40;100.00;102137.13;682008;28;1157;-54
2021/11/20 00:50:14;;;;;;;34.25;22.13;;;;;;;8.39;100.00;102135.38;682413;28;1196;-55
2021/11/20 00:50:36;;;;;;;33.72;21.30;;;;;;;8.39;100.00;102135.38;683249;28;1999;-54
2021/11/20 00:51:08;;;;;;;33.15;21.52;;;;;;;8.37;100.00;102134.44;681199;29;1221;-55
2021/11/20 00:51:30;;;;;;;33.40;21.65;;;;;;;8.38;100.00;102133.59;677534;29;4921;-53
2021/11/20 00:51:51;;;;;;;31.03;21.20;;;;;;;8.39;100.00;102135.38;680626;29;1219;-53
2021/11/20 00:52:12;;;;;;;31.85;20.60;;;;;;;8.40;100.00;102134.53;679016;28;1267;-53
2021/11/20 00:52:32;;;;;;;32.17;20.85;;;;;;;8.40;100.00;102136.25;676782;29;1300;-56
2021/11/20 00:52:54;;;;;;;32.53;21.17;;;;;;;8.39;100.00;102135.38;676843;29;1281;-52
2021/11/20 00:53:14;;;;;;;33.88;21.35;;;;;;;8.38;100.00;102131.00;677510;29;1125;-53
2021/11/20 00:53:36;;;;;;;32.50;20.97;;;;;;;8.39;100.00;102139.69;677866;29;3574;-55
2021/11/20 00:53:57;;;;;;;31.45;20.27;;;;;;;8.39;100.00;102139.69;676888;29;1091;-53
2021/11/20 00:54:20;;;;;;;30.48;19.95;;;;;;;8.38;100.00;102132.72;675551;29;4960;-51
2021/11/20 00:54:42;;;;;;;32.20;19.95;;;;;;;8.38;100.00;102138.81;680375;29;1125;-54
2021/11/20 00:55:03;;;;;;;30.80;19.88;;;;;;;8.37;100.00;102136.19;679534;29;1242;-54
2021/11/20 00:55:25;;;;;;;30.95;20.70;;;;;;;8.36;100.00;102132.66;680265;29;1068;-55
2021/11/20 00:55:46;;;;;;;31.40;20.70;;;;;;;8.34;100.00;102132.63;679927;29;1073;-53
2021/11/20 00:56:08;;;;;;;30.45;20.88;;;;;;;8.36;100.00;102135.28;679555;28;1428;-55
2021/11/20 00:56:30;;;;;;;33.65;21.67;;;;;;;8.35;100.00;102136.13;681877;28;3895;-51
2021/11/20 00:56:51;;;;;;;33.73;21.67;;;;;;;8.35;100.00;102133.53;682736;28;1431;-52
2021/11/20 00:57:12;;;;;;;32.67;22.35;;;;;;;8.34;100.00;102135.22;679476;28;4489;-53
2021/11/20 00:57:32;;;;;;;32.60;21.60;;;;;;;8.33;100.00;102132.59;679673;29;1165;-51
2021/11/20 00:57:55;;;;;;;32.08;21.02;;;;;;;8.32;100.00;102139.53;678472;29;1256;-54
2021/11/20 00:58:18;;;;;;;34.47;22.25;;;;;;;8.31;100.00;102131.69;678904;29;1314;-51
2021/11/20 00:58:39;;;;;;;34.72;21.63;;;;;;;8.31;100.00;102131.69;677461;29;1066;-53
2021/11/20 00:59:00;;;;;;;34.55;21.52;;;;;;;8.31;100.00;102134.28;678655;29;1129;-54
2021/11/20 00:59:21;;;;;;;35.10;22.08;;;;;;;8.30;100.00;102138.59;680484;28;2302;-51
2021/11/20 00:59:42;;;;;;;35.90;22.23;;;;;;;8.29;100.00;102135.94;681451;28;3455;-51
2021/11/20 01:00:05;;;;;;;34.50;21.38;;;;;;;8.29;100.00;102136.84;681411;28;4503;-52
2021/11/20 01:00:32;;;;;;;34.72;20.95;;;;;;;8.28;100.00;102131.56;685033;28;1298;-52
2021/11/20 01:00:56;;;;;;;35.55;21.40;;;;;;;8.26;100.00;102139.34;679749;29;1485;-51
2021/11/20 01:01:23;;;;;;;32.67;21.25;;;;;;;8.27;100.00;102140.25;680308;28;1343;-50
2021/11/20 01:01:52;;;;;;;37.50;22.30;;;;;;;8.25;100.00;102131.50;675268;29;2400;-53
2021/11/20 01:02:13;;;;;;;40.38;22.95;;;;;;;8.25;100.00;102135.00;674135;29;2092;-52
2021/11/20 01:02:34;;;;;;;36.25;23.30;;;;;;;8.26;100.00;102134.13;669396;29;3132;-53
2021/11/20 01:02:56;;;;;;;37.03;22.58;;;;;;;8.26;100.00;102133.25;675703;29;1817;-53
2021/11/20 01:03:16;;;;;;;38.55;22.90;;;;;;;8.26;100.00;102138.47;677637;29;4508;-56
2021/11/20 01:03:37;;;;;;;37.50;23.17;;;;;;;8.26;100.00;102134.13;679630;29;1210;-54
2021/11/20 01:03:58;;;;;;;36.70;22.08;;;;;;;8.26;100.00;102135.88;680257;28;1269;-51
2021/11/20 01:04:21;;;;;;;36.22;22.05;;;;;;;8.26;100.00;102138.47;676977;29;1244;-53
2021/11/20 01:04:41;;;;;;;35.85;21.55;;;;;;;8.25;100.00;102139.31;675067;29;1316;-53
2021/11/20 01:05:04;;;;;;;35.60;21.83;;;;;;;8.25;100.00;102136.69;672414;29;1252;-52
2021/11/20 01:05:25;;;;;;;35.35;21.40;;;;;;;8.25;100.00;102137.59;675194;29;3215;-52
2021/11/20 01:05:47;;;;;;;34.55;21.35;;;;;;;8.26;100.00;102135.88;677408;29;4361;-53
2021/11/20 01:06:08;;;;;;;35.45;21.05;;;;;;;8.26;100.00;102138.47;678165;28;5756;-55
2021/11/20 01:06:29;;;;;;;36.83;21.77;;;;;;;8.26;100.00;102139.34;679772;28;1985;-55
2021/11/20 01:06:51;;;;;;;37.58;21.80;;;;;;;8.25;100.00;102128.88;677890;29;1259;-55
2021/11/20 01:07:12;;;;;;;36.58;20.98;;;;;;;8.26;100.00;102134.13;680604;28;1383;-53
2021/11/20 01:07:34;;;;;;;33.50;20.98;;;;;;;8.27;100.00;102135.91;675743;29;1551;-52
2021/11/20 01:07:57;;;;;;;31.88;20.13;;;;;;;8.27;100.00;102135.03;675669;29;1245;-52
2021/11/20 01:08:21;;;;;;;32.13;19.77;;;;;;;8.28;100.00;102132.47;670433;29;3087;-52
2021/11/20 01:08:46;;;;;;;31.17;19.67;;;;;;;8.28;100.00;102137.69;676769;29;3905;-54
2021/11/20 01:09:08;;;;;;;33.45;21.48;;;;;;;8.29;100.00;102133.34;673306;29;4412;-53
2021/11/20 01:09:38;;;;;;;37.35;22.77;;;;;;;8.28;100.00;102134.16;679089;29;2052;-52
2021/11/20 01:09:58;;;;;;;35.97;22.10;;;;;;;8.28;100.00;102136.78;680294;29;2173;-51
2021/11/20 01:10:23;;;;;;;36.13;22.88;;;;;;;8.28;100.00;102131.56;682980;28;1623;-54
2021/11/20 01:10:48;;;;;;;36.00;21.05;;;;;;;8.27;100.00;102133.31;682309;28;1252;-54
2021/11/20 01:11:26;;;;;;;34.72;21.80;;;;;;;8.29;100.00;102128.13;679848;28;3640;-55
2021/11/20 01:11:56;;;;;;;32.75;21.27;;;;;;;8.30;100.00;102127.31;678142;28;1235;-52
2021/11/20 01:12:23;;;;;;;31.80;20.85;;;;;;;8.29;100.00;102128.13;679263;28;4453;-53
2021/11/20 01:12:45;;;;;;;34.97;22.08;;;;;;;8.30;100.00;102122.09;682735;28;1184;-54
2021/11/20 01:13:06;;;;;;;36.97;22.40;;;;;;;8.29;100.00;102128.13;682454;28;1385;-52
2021/11/20 01:13:27;;;;;;;36.08;22.70;;;;;;;8.29;100.00;102126.44;683266;28;1712;-53
2021/11/20 01:13:49;;;;;;;34.33;22.23;;;;;;;8.29;100.00;102125.53;683495;28;1200;-52
2021/11/20 01:14:12;;;;;;;33.63;21.52;;;;;;;8.29;100.00;102123.81;679819;29;3852;-51
2021/11/20 01:14:34;;;;;;;37.17;22.85;;;;;;;8.28;100.00;102127.25;677104;29;3597;-52
2021/11/20 01:14:56;;;;;;;35.53;22.08;;;;;;;8.27;100.00;102122.00;675593;29;1159;-54
2021/11/20 01:15:29;;;;;;;36.20;21.73;;;;;;;8.28;100.00;102121.16;674832;29;4347;-56
2021/11/20 01:15:55;;;;;;;34.92;20.95;;;;;;;8.28;100.00;102122.06;674409;29;1277;-56
2021/11/20 01:16:17;;;;;;;32.83;20.73;;;;;;;8.30;100.00;102135.13;678130;29;2523;-53
2021/11/20 01:16:39;;;;;;;35.85;22.00;;;;;;;8.28;100.00;102123.75;680764;29;1149;-53
2021/11/20 01:17:02;;;;;;;33.80;21.65;;;;;;;8.25;100.00;102131.50;678014;29;1545;-55
2021/11/20 01:17:26;;;;;;;34.28;20.95;;;;;;;8.24;100.00;102130.63;675422;29;3406;-56
2021/11/20 01:17:48;;;;;;;34.13;21.70;;;;;;;8.24;100.00;102128.00;675082;29;1192;-53
2021/11/20 01:18:10;;;;;;;33.83;21.55;;;;;;;8.24;100.00;102127.09;673721;29;4760;-52
2021/11/20 01:18:36;;;;;;;32.55;20.08;;;;;;;8.27;100.00;102127.22;675602;29;1545;-51
2021/11/20 01:19:06;;;;;;;30.95;20.08;;;;;;;8.27;100.00;102128.09;679427;29;1264;-54
2021/11/20 01:20:06;;;;;;;36.00;21.63;;;;;;;8.26;100.00;102123.72;679922;28;2093;-53
2021/11/20 01:21:00;;;;;;;33.65;21.70;;;;;;;8.28;100.00;102121.16;683070;28;4601;-53
2021/11/20 01:21:21;;;;;;;35.60;21.88;;;;;;;8.28;100.00;102122.06;680150;28;1346;-54
2021/11/20 01:21:43;;;;;;;34.85;21.55;;;;;;;8.27;100.00;102125.47;682689;28;1446;-52
2021/11/20 01:22:07;;;;;;;37.45;22.40;;;;;;;8.28;100.00;102123.75;683125;28;1232;-51
2021/11/20 01:22:45;;;;;;;35.97;21.73;;;;;;;8.27;100.00;102120.28;682943;28;1204;-53
2021/11/20 01:23:24;;;;;;;40.85;21.48;;;;;;;8.28;100.00;102119.44;680429;28;3604;-54
2021/11/20 01:23:53;;;;;;;43.15;21.35;;;;;;;8.27;100.00;102111.59;680447;29;1118;-52
2021/11/20 01:24:14;;;;;;;40.73;21.33;;;;;;;8.26;100.00;102121.09;679793;28;4347;-54
2021/11/20 01:24:34;;;;;;;36.50;21.10;;;;;;;8.28;100.00;102115.94;680788;29;1318;-56
2021/11/20 01:24:57;;;;;;;41.50;21.63;;;;;;;8.28;100.00;102123.75;679488;28;1548;-52
2021/11/20 01:25:30;;;;;;;39.28;21.27;;;;;;;8.28;100.00;102119.44;679321;29;1634;-54
2021/11/20 01:26:03;;;;;;;37.15;20.83;;;;;;;8.28;100.00;102118.53;677336;29;1875;-53
2021/11/20 01:26:33;;;;;;;35.85;20.95;;;;;;;8.28;100.00;102110.72;680415;29;1586;-51
2021/11/20 01:26:53;;;;;;;33.87;21.07;;;;;;;8.29;100.00;102117.72;685799;28;1314;-53
2021/11/20 01:27:14;;;;;;;36.10;21.25;;;;;;;8.28;100.00;102121.16;685019;28;4435;-53
2021/11/20 01:27:37;;;;;;;35.17;22.13;;;;;;;8.27;100.00;102109.84;685976;28;1705;-53
2021/11/20 01:28:39;;;;;;;35.08;20.33;;;;;;;8.26;100.00;102123.72;680545;29;1031;-52
2021/11/20 01:29:08;;;;;;;32.45;21.15;;;;;;;8.23;100.00;102117.56;682830;28;3104;-54
2021/11/20 01:29:36;;;;;;;32.50;21.35;;;;;;;8.20;100.00;102118.34;685698;28;2011;-53
2021/11/20 01:29:56;;;;;;;33.03;21.00;;;;;;;8.19;100.00;102112.22;683574;28;1255;-54
2021/11/20 01:30:18;;;;;;;35.25;21.67;;;;;;;8.20;100.00;102115.75;679620;29;4672;-53
2021/11/20 01:30:40;;;;;;;34.72;21.38;;;;;;;8.20;100.00;102115.75;677897;29;1280;-55
2021/11/20 01:31:04;;;;;;;33.95;21.63;;;;;;;8.20;100.00;102115.75;678705;29;1272;-53
2021/11/20 01:31:33;;;;;;;36.85;22.70;;;;;;;8.19;100.00;102117.44;673985;29;1051;-51
2021/11/20 01:31:55;;;;;;;37.28;22.20;;;;;;;8.19;100.00;102111.34;678472;29;2034;-51
2021/11/20 01:32:17;;;;;;;35.35;21.67;;;;;;;8.20;100.00;102115.75;681202;28;4117;-53
2021/11/20 01:32:38;;;;;;;36.85;22.52;;;;;;;8.19;100.00;102114.84;680820;28;1293;-54
2021/11/20 01:32:59;;;;;;;38.40;22.88;;;;;;;8.19;100.00;102112.22;680636;28;4629;-52
2021/11/20 01:33:21;;;;;;;36.63;22.20;;;;;;;8.19;100.00;102116.56;680469;28;1321;-55
2021/11/20 01:33:45;;;;;;;34.60;20.80;;;;;;;8.21;100.00;102114.00;680190;28;1076;-53
2021/11/20 01:34:07;;;;;;;31.48;19.98;;;;;;;8.22;100.00;102113.16;678250;28;1405;-52
2021/11/20 01:34:28;;;;;;;32.50;20.63;;;;;;;8.23;100.00;102120.16;677921;29;1456;-56
2021/11/20 01:34:48;;;;;;;32.33;20.07;;;;;;;8.23;100.00;102113.22;679045;29;1252;-52
2021/11/20 01:35:10;;;;;;;33.20;20.33;;;;;;;8.24;100.00;102116.69;679371;28;3438;-55
2021/11/20 01:35:35;;;;;;;33.25;20.38;;;;;;;8.25;100.00;102108.03;680049;28;1192;-51
2021/11/20 01:36:03;;;;;;;32.72;21.50;;;;;;;8.24;100.00;102111.47;681357;28;4529;-53
2021/11/20 01:36:28;;;;;;;35.30;21.98;;;;;;;8.24;100.00;102111.47;681362;28;1228;-53
2021/11/20 01:36:53;;;;;;;35.67;22.42;;;;;;;8.24;100.00;102109.78;682009;28;1239;-53
2021/11/20 01:37:15;;;;;;;36.47;22.33;;;;;;;8.24;100.00;102112.38;678263;29;1125;-53
2021/11/20 01:37:41;;;;;;;35.90;21.95;;;;;;;8.24;100.00;102106.25;678322;29;1265;-53
2021/11/20 01:38:01;;;;;;;33.60;21.23;;;;;;;8.24;100.00;102104.56;675743;29;1935;-52
2021/11/20 01:38:22;;;;;;;34.83;21.80;;;;;;;8.23;100.00;102108.00;677358;29;3331;-53
2021/11/20 01:38:46;;;;;;;32.75;21.15;;;;;;;8.24;100.00;102101.06;673873;29;1607;-53
2021/11/20 01:39:17;;;;;;;36.05;21.42;;;;;;;8.22;100.00;102106.22;676049;29;4448;-51
2021/11/20 01:39:47;;;;;;;34.40;21.58;;;;;;;8.23;100.00;102112.34;676754;29;1460;-54
2021/11/20 01:40:23;;;;;;;35.33;21.23;;;;;;;8.23;100.00;102107.13;674929;29;1243;-55
2021/11/20 01:40:45;;;;;;;33.45;20.95;;;;;;;8.22;100.00;102102.75;681116;28;1251;-52
2021/11/20 01:41:16;;;;;;;34.83;20.20;;;;;;;8.23;100.00;102107.13;675533;29;3423;-53
2021/11/20 01:42:02;;;;;;;30.65;19.63;;;;;;;8.24;100.00;102106.25;681322;28;2456;-53
2021/11/20 01:42:43;;;;;;;33.50;20.25;;;;;;;8.23;100.00;102108.00;682785;28;4976;-52
2021/11/20 01:43:07;;;;;;;33.45;21.02;;;;;;;8.22;100.00;102103.63;684049;28;1531;-53
2021/11/20 01:43:29;;;;;;;34.20;21.27;;;;;;;8.22;100.00;102108.84;683713;28;1013;-54
2021/11/20 01:43:53;;;;;;;33.33;21.07;;;;;;;8.23;100.00;102104.53;682645;28;3490;-52
2021/11/20 01:44:22;;;;;;;33.67;21.23;;;;;;;8.22;100.00;102100.16;680699;28;1242;-54
2021/11/20 01:44:46;;;;;;;34.03;21.85;;;;;;;8.23;100.00;102096.72;681704;28;1440;-53
2021/11/20 01:45:13;;;;;;;36.05;21.23;;;;;;;8.22;100.00;102101.03;677229;28;4602;-52
2021/11/20 01:45:50;;;;;;;36.03;21.23;;;;;;;8.23;100.00;102101.91;681675;28;1468;-52
2021/11/20 01:46:18;;;;;;;34.75;20.67;;;;;;;8.22;100.00;102106.22;678229;29;1649;-52
2021/11/20 01:46:52;;;;;;;41.25;21.23;;;;;;;8.21;100.00;102096.66;678471;29;1418;-51
2021/11/20 01:47:39;;;;;;;38.25;21.15;;;;;;;8.23;100.00;102107.13;679435;28;1414;-52
2021/11/20 01:48:26;;;;;;;36.92;20.98;;;;;;;8.22;100.00;102094.94;679789;28;4679;-53
2021/11/20 01:48:58;;;;;;;35.53;21.77;;;;;;;8.21;100.00;102095.78;683486;28;1901;-52
2021/11/20 01:49:31;;;;;;;36.35;21.67;;;;;;;8.19;100.00;102088.78;685339;28;1542;-53
2021/11/20 01:49:59;;;;;;;32.40;20.45;;;;;;;8.19;100.00;102099.19;681866;28;3367;-52
2021/11/20 01:50:41;;;;;;;32.42;20.35;;;;;;;8.19;100.00;102096.59;683488;28;1152;-53
2021/11/20 01:51:15;;;;;;;33.08;20.13;;;;;;;8.18;100.00;102094.84;682792;28;4372;-52
2021/11/20 01:51:59;;;;;;;33.08;20.55;;;;;;;8.18;100.00;102091.34;681035;28;2344;-52
2021/11/20 01:52:43;;;;;;;33.67;19.10;;;;;;;8.20;100.00;102092.28;677609;29;2178;-53
2021/11/20 01:53:14;;;;;;;33.83;20.95;;;;;;;8.18;100.00;102092.25;675555;29;3648;-51
2021/11/20 01:53:41;;;;;;;34.13;21.08;;;;;;;8.18;100.00;102088.75;680398;29;1197;-54
2021/11/20 01:54:21;;;;;;;35.20;20.85;;;;;;;8.17;100.00;102093.09;680105;28;4445;-51
2021/11/20 01:55:14;;;;;;;39.65;20.60;;;;;;;8.20;100.00;102084.47;685414;28;1320;-51
2021/11/20 01:56:10;;;;;;;39.15;20.63;;;;;;;8.19;100.00;102090.53;680404;28;3816;-51
2021/11/20 01:56:45;;;;;;;36.05;19.77;;;;;;;8.21;100.00;102085.34;682637;28;1526;-52
2021/11/20 01:57:27;;;;;;;32.25;20.13;;;;;;;8.21;100.00;102085.34;680578;28;4638;-54
2021/11/20 01:57:57;;;;;;;33.53;19.77;;;;;;;8.20;100.00;102084.47;682794;28;1329;-55
2021/11/20 01:58:40;;;;;;;37.92;20.75;;;;;;;8.22;100.00;102087.13;680792;29;1423;-54
2021/11/20 01:59:36;;;;;;;34.67;20.20;;;;;;;8.21;100.00;102086.25;682684;28;1375;-55